sensor_id;sensor_type;location;lat;lon;timestamp;pressure;altitude;pressure_sealevel;temperature;humidity
75972;BME280;64651;47.540;19.088;2023-04-26T00:03:44;99767.84;;;8.74;76.65
75972;BME280;64651;47.540;19.088;2023-04-26T00:08:47;99755.53;;;8.66;76.96
75972;BME280;64651;47.540;19.088;2023-04-26T00:13:50;99768.16;;;8.67;77.11
75972;BME280;64651;47.540;19.088;2023-04-26T00:18:52;99771.19;;;8.66;77.55
75972;BME280;64651;47.540;19.088;2023-04-26T00:23:56;99781.28;;;8.75;77.70
75972;BME280;64651;47.540;19.088;2023-04-26T00:28:58;99794.97;;;8.80;77.68
75972;BME280;64651;47.540;19.088;2023-04-26T00:34:00;99799.09;;;8.78;77.44
75972;BME280;64651;47.540;19.088;2023-04-26T00:39:03;99797.72;;;8.75;77.27
75972;BME280;64651;47.540;19.088;2023-04-26T00:44:05;99795.63;;;8.57;77.76
75972;BME280;64651;47.540;19.088;2023-04-26T00:49:07;99814.56;;;8.59;77.81
75972;BME280;64651;47.540;19.088;2023-04-26T00:54:11;99821.47;;;8.26;79.31
75972;BME280;64651;47.540;19.088;2023-04-26T00:59:14;99812.50;;;8.05;80.47
75972;BME280;64651;47.540;19.088;2023-04-26T01:04:17;99825.66;;;7.83;81.51
75972;BME280;64651;47.540;19.088;2023-04-26T01:09:20;99825.16;;;7.60;82.16
75972;BME280;64651;47.540;19.088;2023-04-26T01:14:23;99830.34;;;7.52;83.04
75972;BME280;64651;47.540;19.088;2023-04-26T01:19:26;99831.44;;;7.41;83.66
75972;BME280;64651;47.540;19.088;2023-04-26T01:24:28;99830.88;;;7.33;84.15
75972;BME280;64651;47.540;19.088;2023-04-26T01:29:31;99837.19;;;7.49;83.04
75972;BME280;64651;47.540;19.088;2023-04-26T01:34:33;99837.16;;;7.39;83.26
75972;BME280;64651;47.540;19.088;2023-04-26T01:39:35;99844.28;;;7.30;83.64
75972;BME280;64651;47.540;19.088;2023-04-26T01:44:37;99847.81;;;7.15;84.11
75972;BME280;64651;47.540;19.088;2023-04-26T01:49:40;99835.50;;;7.18;83.23
75972;BME280;64651;47.540;19.088;2023-04-26T01:54:42;99857.16;;;7.29;82.62
75972;BME280;64651;47.540;19.088;2023-04-26T01:59:44;99851.41;;;7.36;82.19
75972;BME280;64651;47.540;19.088;2023-04-26T02:04:47;99867.78;;;7.16;82.38
75972;BME280;64651;47.540;19.088;2023-04-26T02:09:49;99850.84;;;7.29;80.49
75972;BME280;64651;47.540;19.088;2023-04-26T02:14:51;99853.31;;;7.25;80.29
75972;BME280;64651;47.540;19.088;2023-04-26T02:19:53;99872.22;;;7.47;79.35
75972;BME280;64651;47.540;19.088;2023-04-26T02:24:56;99851.97;;;7.48;77.82
75972;BME280;64651;47.540;19.088;2023-04-26T02:29:58;99862.91;;;7.43;78.12
75972;BME280;64651;47.540;19.088;2023-04-26T02:35:00;99874.13;;;7.42;77.86
75972;BME280;64651;47.540;19.088;2023-04-26T02:40:03;99869.72;;;7.25;78.57
75972;BME280;64651;47.540;19.088;2023-04-26T02:45:07;99874.66;;;7.28;78.34
75972;BME280;64651;47.540;19.088;2023-04-26T02:50:09;99867.00;;;7.41;77.39
75972;BME280;64651;47.540;19.088;2023-04-26T02:55:11;99880.38;;;7.27;77.80
75972;BME280;64651;47.540;19.088;2023-04-26T03:00:14;99899.53;;;7.32;77.08
75972;BME280;64651;47.540;19.088;2023-04-26T03:05:16;99904.50;;;7.35;76.27
75972;BME280;64651;47.540;19.088;2023-04-26T03:10:18;99899.03;;;7.35;76.12
75972;BME280;64651;47.540;19.088;2023-04-26T03:15:20;99916.53;;;7.29;76.27
75972;BME280;64651;47.540;19.088;2023-04-26T03:20:23;99908.81;;;7.11;76.10
75972;BME280;64651;47.540;19.088;2023-04-26T03:25:26;99941.16;;;7.29;75.38
75972;BME280;64651;47.540;19.088;2023-04-26T03:30:28;99916.19;;;7.05;75.64
75972;BME280;64651;47.540;19.088;2023-04-26T03:35:30;99935.88;;;7.07;75.88
75972;BME280;64651;47.540;19.088;2023-04-26T03:40:33;99941.28;;;6.92;76.27
75972;BME280;64651;47.540;19.088;2023-04-26T03:45:35;99941.66;;;6.59;77.49
75972;BME280;64651;47.540;19.088;2023-04-26T03:50:38;99961.13;;;6.72;77.38
75972;BME280;64651;47.540;19.088;2023-04-26T03:55:40;99942.69;;;6.47;78.22
75972;BME280;64651;47.540;19.088;2023-04-26T04:00:42;99965.34;;;6.48;78.70
75972;BME280;64651;47.540;19.088;2023-04-26T04:05:45;99970.31;;;6.51;78.68
75972;BME280;64651;47.540;19.088;2023-04-26T04:10:47;99968.91;;;6.48;78.72
75972;BME280;64651;47.540;19.088;2023-04-26T04:15:50;99960.72;;;6.48;78.17
75972;BME280;64651;47.540;19.088;2023-04-26T04:20:52;99965.91;;;6.45;78.01
75972;BME280;64651;47.540;19.088;2023-04-26T04:25:54;99983.97;;;6.51;77.97
75972;BME280;64651;47.540;19.088;2023-04-26T04:30:57;99971.56;;;6.75;76.32
75972;BME280;64651;47.540;19.088;2023-04-26T04:35:59;99966.06;;;6.70;75.75
75972;BME280;64651;47.540;19.088;2023-04-26T04:41:01;99998.81;;;7.12;74.00
75972;BME280;64651;47.540;19.088;2023-04-26T04:46:03;100002.63;;;7.06;74.19
75972;BME280;64651;47.540;19.088;2023-04-26T04:51:06;100018.81;;;7.18;73.63
75972;BME280;64651;47.540;19.088;2023-04-26T04:56:09;100006.69;;;7.04;73.74
75972;BME280;64651;47.540;19.088;2023-04-26T05:01:11;100026.69;;;7.09;74.71
75972;BME280;64651;47.540;19.088;2023-04-26T05:06:13;100040.87;;;7.01;76.00
75972;BME280;64651;47.540;19.088;2023-04-26T05:11:15;100037.00;;;6.92;77.03
75972;BME280;64651;47.540;19.088;2023-04-26T05:16:17;100035.28;;;6.81;77.60
75972;BME280;64651;47.540;19.088;2023-04-26T05:21:20;100050.03;;;6.80;78.46
75972;BME280;64651;47.540;19.088;2023-04-26T05:26:23;100042.72;;;6.90;77.78
75972;BME280;64651;47.540;19.088;2023-04-26T05:31:25;100055.69;;;7.10;77.16
75972;BME280;64651;47.540;19.088;2023-04-26T05:36:28;100066.97;;;7.19;75.75
75972;BME280;64651;47.540;19.088;2023-04-26T05:41:31;100059.31;;;7.26;74.21
75972;BME280;64651;47.540;19.088;2023-04-26T05:46:33;100074.97;;;7.36;73.15
75972;BME280;64651;47.540;19.088;2023-04-26T05:51:36;100083.44;;;7.34;73.16
75972;BME280;64651;47.540;19.088;2023-04-26T05:56:38;100081.31;;;7.41;72.05
75972;BME280;64651;47.540;19.088;2023-04-26T06:01:40;100072.00;;;7.42;70.83
75972;BME280;64651;47.540;19.088;2023-04-26T06:06:43;100067.63;;;7.41;70.29
75972;BME280;64651;47.540;19.088;2023-04-26T06:11:45;100075.34;;;7.59;69.84
75972;BME280;64651;47.540;19.088;2023-04-26T06:16:47;100083.06;;;7.67;68.47
75972;BME280;64651;47.540;19.088;2023-04-26T06:21:49;100079.53;;;7.72;68.02
75972;BME280;64651;47.540;19.088;2023-04-26T06:26:55;100092.75;;;8.00;66.52
75972;BME280;64651;47.540;19.088;2023-04-26T06:31:58;100107.84;;;8.18;65.12
75972;BME280;64651;47.540;19.088;2023-04-26T06:37:00;100079.34;;;8.19;64.33
75972;BME280;64651;47.540;19.088;2023-04-26T06:42:06;100099.97;;;8.42;62.95
75972;BME280;64651;47.540;19.088;2023-04-26T06:47:08;100088.47;;;8.55;62.14
75972;BME280;64651;47.540;19.088;2023-04-26T06:52:12;100103.28;;;8.69;61.62
75972;BME280;64651;47.540;19.088;2023-04-26T06:57:14;100098.06;;;8.83;60.80
75972;BME280;64651;47.540;19.088;2023-04-26T07:02:16;100099.41;;;9.06;60.59
75972;BME280;64651;47.540;19.088;2023-04-26T07:07:19;100099.94;;;9.18;52.07
75972;BME280;64651;47.540;19.088;2023-04-26T07:12:21;100094.87;;;9.55;50.29
75972;BME280;64651;47.540;19.088;2023-04-26T07:17:23;100109.00;;;9.98;48.85
75972;BME280;64651;47.540;19.088;2023-04-26T07:22:26;100114.59;;;10.32;48.68
75972;BME280;64651;47.540;19.088;2023-04-26T07:27:29;100114.41;;;10.57;48.36
75972;BME280;64651;47.540;19.088;2023-04-26T07:32:31;100115.56;;;10.51;46.35
75972;BME280;64651;47.540;19.088;2023-04-26T07:37:33;100105.69;;;10.45;45.24
75972;BME280;64651;47.540;19.088;2023-04-26T07:42:36;100118.63;;;12.50;41.32
75972;BME280;64651;47.540;19.088;2023-04-26T07:47:38;100118.91;;;13.73;37.69
75972;BME280;64651;47.540;19.088;2023-04-26T07:52:40;100139.75;;;14.83;35.47
75972;BME280;64651;47.540;19.088;2023-04-26T07:57:44;100131.25;;;15.24;34.29
75972;BME280;64651;47.540;19.088;2023-04-26T08:02:47;100144.03;;;14.89;34.29
75972;BME280;64651;47.540;19.088;2023-04-26T08:07:49;100136.75;;;15.86;33.53
75972;BME280;64651;47.540;19.088;2023-04-26T08:12:51;100145.34;;;16.24;31.81
75972;BME280;64651;47.540;19.088;2023-04-26T08:17:54;100148.72;;;16.69;31.37
75972;BME280;64651;47.540;19.088;2023-04-26T08:22:56;100149.63;;;17.42;30.59
75972;BME280;64651;47.540;19.088;2023-04-26T08:27:59;100176.19;;;16.71;30.76
75972;BME280;64651;47.540;19.088;2023-04-26T08:33:02;100169.06;;;15.82;31.63
75972;BME280;64651;47.540;19.088;2023-04-26T08:38:04;100156.88;;;17.17;29.69
75972;BME280;64651;47.540;19.088;2023-04-26T08:43:07;100171.59;;;17.18;29.87
75972;BME280;64651;47.540;19.088;2023-04-26T08:48:12;100182.38;;;18.30;27.76
75972;BME280;64651;47.540;19.088;2023-04-26T08:53:17;100167.78;;;18.83;27.47
75972;BME280;64651;47.540;19.088;2023-04-26T08:58:19;100159.66;;;20.13;25.83
75972;BME280;64651;47.540;19.088;2023-04-26T09:03:22;100169.56;;;20.10;25.82
75972;BME280;64651;47.540;19.088;2023-04-26T09:08:27;100179.28;;;19.68;26.21
75972;BME280;64651;47.540;19.088;2023-04-26T09:13:30;100172.91;;;19.92;24.71
75972;BME280;64651;47.540;19.088;2023-04-26T09:18:32;100169.66;;;20.26;24.31
75972;BME280;64651;47.540;19.088;2023-04-26T09:23:35;100179.84;;;19.61;25.53
75972;BME280;64651;47.540;19.088;2023-04-26T09:28:37;100186.44;;;20.38;24.37
75972;BME280;64651;47.540;19.088;2023-04-26T09:33:56;100177.00;;;19.82;24.67
75972;BME280;64651;47.540;19.088;2023-04-26T09:39:00;100173.25;;;21.43;22.92
75972;BME280;64651;47.540;19.088;2023-04-26T09:44:02;100166.16;;;19.80;23.71
75972;BME280;64651;47.540;19.088;2023-04-26T09:49:04;100174.59;;;21.33;22.90
75972;BME280;64651;47.540;19.088;2023-04-26T09:54:07;100157.78;;;21.77;21.93
75972;BME280;64651;47.540;19.088;2023-04-26T09:59:09;100160.22;;;22.95;20.34
75972;BME280;64651;47.540;19.088;2023-04-26T10:04:12;100166.34;;;23.81;19.63
75972;BME280;64651;47.540;19.088;2023-04-26T10:09:14;100158.72;;;23.40;20.13
75972;BME280;64651;47.540;19.088;2023-04-26T10:14:17;100161.34;;;21.62;21.51
75972;BME280;64651;47.540;19.088;2023-04-26T10:19:20;100147.72;;;22.23;21.95
75972;BME280;64651;47.540;19.088;2023-04-26T10:24:23;100162.22;;;22.25;21.02
75972;BME280;64651;47.540;19.088;2023-04-26T10:30:04;100170.34;;;18.67;24.25
75972;BME280;64651;47.540;19.088;2023-04-26T10:35:10;100161.47;;;21.81;22.00
75972;BME280;64651;47.540;19.088;2023-04-26T10:45:27;100161.69;;;21.44;21.04
75972;BME280;64651;47.540;19.088;2023-04-26T10:50:30;100156.63;;;24.47;17.79
75972;BME280;64651;47.540;19.088;2023-04-26T10:55:42;100167.25;;;23.05;18.08
75972;BME280;64651;47.540;19.088;2023-04-26T11:01:05;100174.41;;;23.41;18.28
75972;BME280;64651;47.540;19.088;2023-04-26T11:06:09;100159.03;;;22.77;19.17
75972;BME280;64651;47.540;19.088;2023-04-26T11:11:15;100180.84;;;18.41;24.12
75972;BME280;64651;47.540;19.088;2023-04-26T11:16:20;100163.25;;;18.19;24.94
75972;BME280;64651;47.540;19.088;2023-04-26T11:21:22;100151.91;;;19.28;22.80
75972;BME280;64651;47.540;19.088;2023-04-26T11:26:31;100147.28;;;21.30;20.98
75972;BME280;64651;47.540;19.088;2023-04-26T11:31:33;100170.66;;;16.22;27.09
75972;BME280;64651;47.540;19.088;2023-04-26T11:36:37;100161.84;;;15.50;29.75
75972;BME280;64651;47.540;19.088;2023-04-26T11:41:39;100175.72;;;14.61;30.35
75972;BME280;64651;47.540;19.088;2023-04-26T11:46:42;100175.91;;;18.38;26.21
75972;BME280;64651;47.540;19.088;2023-04-26T11:51:47;100169.00;;;17.85;26.22
75972;BME280;64651;47.540;19.088;2023-04-26T11:56:50;100176.84;;;17.19;26.83
75972;BME280;64651;47.540;19.088;2023-04-26T12:01:53;100181.41;;;16.98;27.30
75972;BME280;64651;47.540;19.088;2023-04-26T12:06:56;100179.09;;;18.98;24.08
75972;BME280;64651;47.540;19.088;2023-04-26T12:12:01;100159.03;;;16.86;26.57
75972;BME280;64651;47.540;19.088;2023-04-26T12:17:06;100172.75;;;16.74;27.19
75972;BME280;64651;47.540;19.088;2023-04-26T12:22:08;100167.03;;;17.77;24.53
75972;BME280;64651;47.540;19.088;2023-04-26T12:27:19;100182.22;;;17.16;25.99
75972;BME280;64651;47.540;19.088;2023-04-26T12:32:22;100179.78;;;14.00;29.12
75972;BME280;64651;47.540;19.088;2023-04-26T12:37:24;100196.09;;;15.01;28.24
75972;BME280;64651;47.540;19.088;2023-04-26T12:42:27;100181.06;;;18.56;24.68
75972;BME280;64651;47.540;19.088;2023-04-26T12:47:29;100188.47;;;19.68;21.79
75972;BME280;64651;47.540;19.088;2023-04-26T12:52:33;100172.53;;;16.44;24.23
75972;BME280;64651;47.540;19.088;2023-04-26T12:57:36;100188.81;;;15.05;28.65
75972;BME280;64651;47.540;19.088;2023-04-26T13:02:39;100193.28;;;15.99;28.63
75972;BME280;64651;47.540;19.088;2023-04-26T13:07:42;100183.47;;;22.10;21.03
75972;BME280;64651;47.540;19.088;2023-04-26T13:12:45;100192.94;;;19.28;23.23
75972;BME280;64651;47.540;19.088;2023-04-26T13:17:47;100211.59;;;15.47;26.77
75972;BME280;64651;47.540;19.088;2023-04-26T13:22:50;100205.34;;;16.42;25.78
75972;BME280;64651;47.540;19.088;2023-04-26T13:27:52;100192.13;;;17.51;25.19
75972;BME280;64651;47.540;19.088;2023-04-26T13:32:55;100191.38;;;22.90;19.42
75972;BME280;64651;47.540;19.088;2023-04-26T13:38:01;100201.97;;;20.36;21.72
75972;BME280;64651;47.540;19.088;2023-04-26T13:43:03;100195.16;;;21.69;20.06
75972;BME280;64651;47.540;19.088;2023-04-26T13:48:07;100213.97;;;19.79;22.45
75972;BME280;64651;47.540;19.088;2023-04-26T13:53:09;100221.81;;;17.04;26.47
75972;BME280;64651;47.540;19.088;2023-04-26T13:58:12;100231.41;;;14.95;29.76
75972;BME280;64651;47.540;19.088;2023-04-26T14:03:14;100235.00;;;14.19;30.84
75972;BME280;64651;47.540;19.088;2023-04-26T14:08:17;100239.19;;;14.16;30.15
75972;BME280;64651;47.540;19.088;2023-04-26T14:13:19;100238.25;;;15.12;29.06
75972;BME280;64651;47.540;19.088;2023-04-26T14:18:22;100226.78;;;16.02;28.13
75972;BME280;64651;47.540;19.088;2023-04-26T14:23:24;100236.19;;;15.93;28.69
75972;BME280;64651;47.540;19.088;2023-04-26T14:28:26;100240.34;;;14.02;31.43
75972;BME280;64651;47.540;19.088;2023-04-26T14:33:29;100245.78;;;13.10;31.68
75972;BME280;64651;47.540;19.088;2023-04-26T14:38:31;100227.78;;;15.75;27.82
75972;BME280;64651;47.540;19.088;2023-04-26T14:43:33;100227.81;;;14.95;28.92
75972;BME280;64651;47.540;19.088;2023-04-26T14:48:36;100238.28;;;13.94;28.99
75972;BME280;64651;47.540;19.088;2023-04-26T14:53:38;100235.59;;;13.43;30.05
75972;BME280;64651;47.540;19.088;2023-04-26T14:58:42;100252.75;;;13.26;31.97
75972;BME280;64651;47.540;19.088;2023-04-26T15:03:44;100253.63;;;13.02;33.51
75972;BME280;64651;47.540;19.088;2023-04-26T15:08:47;100253.78;;;12.92;33.46
75972;BME280;64651;47.540;19.088;2023-04-26T15:13:50;100255.56;;;13.39;32.41
75972;BME280;64651;47.540;19.088;2023-04-26T15:18:52;100264.00;;;13.94;31.61
75972;BME280;64651;47.540;19.088;2023-04-26T15:23:55;100247.50;;;13.06;32.55
75972;BME280;64651;47.540;19.088;2023-04-26T15:28:57;100244.50;;;12.65;33.81
75972;BME280;64651;47.540;19.088;2023-04-26T15:33:59;100273.38;;;12.30;34.70
75972;BME280;64651;47.540;19.088;2023-04-26T15:39:01;100275.03;;;12.07;34.59
75972;BME280;64651;47.540;19.088;2023-04-26T15:44:04;100284.28;;;12.16;34.25
75972;BME280;64651;47.540;19.088;2023-04-26T15:49:06;100264.28;;;12.72;32.90
75972;BME280;64651;47.540;19.088;2023-04-26T15:54:08;100265.88;;;15.92;28.55
75972;BME280;64651;47.540;19.088;2023-04-26T15:59:10;100265.03;;;16.14;27.99
75972;BME280;64651;47.540;19.088;2023-04-26T16:04:12;100261.59;;;16.08;28.21
75972;BME280;64651;47.540;19.088;2023-04-26T16:09:15;100268.19;;;15.68;28.47
75972;BME280;64651;47.540;19.088;2023-04-26T16:14:26;100265.25;;;15.64;29.05
75972;BME280;64651;47.540;19.088;2023-04-26T16:19:29;100267.53;;;16.72;27.94
75972;BME280;64651;47.540;19.088;2023-04-26T16:24:31;100279.41;;;15.40;29.50
75972;BME280;64651;47.540;19.088;2023-04-26T16:29:34;100289.94;;;13.33;31.41
75972;BME280;64651;47.540;19.088;2023-04-26T16:34:39;100291.16;;;12.85;32.32
75972;BME280;64651;47.540;19.088;2023-04-26T16:39:41;100307.66;;;12.47;33.29
75972;BME280;64651;47.540;19.088;2023-04-26T16:44:44;100314.72;;;13.38;32.11
75972;BME280;64651;47.540;19.088;2023-04-26T16:49:46;100293.00;;;12.71;32.80
75972;BME280;64651;47.540;19.088;2023-04-26T16:54:49;100305.37;;;12.31;33.91
75972;BME280;64651;47.540;19.088;2023-04-26T16:59:51;100319.97;;;11.78;35.10
75972;BME280;64651;47.540;19.088;2023-04-26T17:04:53;100339.25;;;11.45;35.58
75972;BME280;64651;47.540;19.088;2023-04-26T17:09:56;100330.22;;;11.68;35.57
75972;BME280;64651;47.540;19.088;2023-04-26T17:14:58;100327.31;;;11.54;35.89
75972;BME280;64651;47.540;19.088;2023-04-26T17:20:03;100317.47;;;11.43;36.24
75972;BME280;64651;47.540;19.088;2023-04-26T17:25:12;100328.66;;;11.18;36.66
75972;BME280;64651;47.540;19.088;2023-04-26T17:30:14;100342.09;;;10.85;37.90
75972;BME280;64651;47.540;19.088;2023-04-26T17:35:16;100346.00;;;10.69;37.05
75972;BME280;64651;47.540;19.088;2023-04-26T17:40:19;100287.34;;;10.04;37.86
75972;BME280;64651;47.540;19.088;2023-04-26T17:45:22;100353.31;;;10.09;38.33
75972;BME280;64651;47.540;19.088;2023-04-26T17:50:24;100364.56;;;10.13;38.17
75972;BME280;64651;47.540;19.088;2023-04-26T17:55:26;100370.34;;;10.01;38.67
75972;BME280;64651;47.540;19.088;2023-04-26T18:00:29;100377.50;;;10.28;38.29
75972;BME280;64651;47.540;19.088;2023-04-26T18:05:31;100379.16;;;10.24;37.83
75972;BME280;64651;47.540;19.088;2023-04-26T18:10:33;100374.47;;;9.89;38.37
75972;BME280;64651;47.540;19.088;2023-04-26T18:15:36;100379.69;;;9.60;38.95
75972;BME280;64651;47.540;19.088;2023-04-26T18:20:38;100404.41;;;9.45;39.14
75972;BME280;64651;47.540;19.088;2023-04-26T18:25:40;100390.66;;;9.34;39.25
75972;BME280;64651;47.540;19.088;2023-04-26T18:30:43;100404.38;;;9.29;39.91
75972;BME280;64651;47.540;19.088;2023-04-26T18:35:47;100412.28;;;9.16;40.44
75972;BME280;64651;47.540;19.088;2023-04-26T18:40:49;100425.31;;;8.78;40.78
75972;BME280;64651;47.540;19.088;2023-04-26T18:45:52;100407.72;;;8.69;40.67
75972;BME280;64651;47.540;19.088;2023-04-26T18:50:57;100426.69;;;8.81;40.38
75972;BME280;64651;47.540;19.088;2023-04-26T18:55:59;100417.91;;;8.79;40.09
75972;BME280;64651;47.540;19.088;2023-04-26T19:01:01;100449.47;;;8.81;40.35
75972;BME280;64651;47.540;19.088;2023-04-26T19:06:07;100448.56;;;8.66;40.46
75972;BME280;64651;47.540;19.088;2023-04-26T19:11:10;100452.62;;;8.58;40.70
75972;BME280;64651;47.540;19.088;2023-04-26T19:16:13;100446.00;;;8.49;40.95
75972;BME280;64651;47.540;19.088;2023-04-26T19:21:15;100449.12;;;8.73;40.61
75972;BME280;64651;47.540;19.088;2023-04-26T19:26:17;100429.72;;;8.32;41.43
75972;BME280;64651;47.540;19.088;2023-04-26T19:31:20;100436.50;;;8.30;41.55
75972;BME280;64651;47.540;19.088;2023-04-26T19:36:22;100457.22;;;8.10;42.18
75972;BME280;64651;47.540;19.088;2023-04-26T19:41:25;100463.34;;;7.91;42.85
75972;BME280;64651;47.540;19.088;2023-04-26T19:46:28;100463.19;;;7.75;43.87
75972;BME280;64651;47.540;19.088;2023-04-26T19:51:30;100476.63;;;7.50;44.91
75972;BME280;64651;47.540;19.088;2023-04-26T19:56:33;100474.34;;;7.42;45.47
75972;BME280;64651;47.540;19.088;2023-04-26T20:01:36;100467.84;;;7.48;44.58
75972;BME280;64651;47.540;19.088;2023-04-26T20:06:38;100461.84;;;7.24;45.10
75972;BME280;64651;47.540;19.088;2023-04-26T20:11:40;100477.91;;;7.43;44.88
75972;BME280;64651;47.540;19.088;2023-04-26T20:16:43;100464.97;;;7.38;44.67
75972;BME280;64651;47.540;19.088;2023-04-26T20:21:45;100497.84;;;7.16;46.95
75972;BME280;64651;47.540;19.088;2023-04-26T20:26:47;100476.50;;;7.13;46.16
75972;BME280;64651;47.540;19.088;2023-04-26T20:31:49;100494.47;;;6.87;46.87
75972;BME280;64651;47.540;19.088;2023-04-26T20:36:52;100485.69;;;6.85;47.12
75972;BME280;64651;47.540;19.088;2023-04-26T20:41:54;100504.91;;;6.90;47.36
75972;BME280;64651;47.540;19.088;2023-04-26T20:46:57;100521.97;;;6.98;48.15
75972;BME280;64651;47.540;19.088;2023-04-26T20:51:59;100511.44;;;6.89;48.09
75972;BME280;64651;47.540;19.088;2023-04-26T20:57:01;100515.31;;;6.55;49.97
75972;BME280;64651;47.540;19.088;2023-04-26T21:02:05;100511.59;;;6.61;49.16
75972;BME280;64651;47.540;19.088;2023-04-26T21:07:09;100496.94;;;6.50;49.71
75972;BME280;64651;47.540;19.088;2023-04-26T21:12:11;100515.59;;;6.20;50.66
75972;BME280;64651;47.540;19.088;2023-04-26T21:17:14;100529.19;;;6.32;51.10
75972;BME280;64651;47.540;19.088;2023-04-26T21:22:17;100536.13;;;6.23;52.13
75972;BME280;64651;47.540;19.088;2023-04-26T21:27:19;100547.00;;;5.89;53.33
75972;BME280;64651;47.540;19.088;2023-04-26T21:32:21;100545.44;;;5.65;54.27
75972;BME280;64651;47.540;19.088;2023-04-26T21:37:23;100559.34;;;5.52;54.98
75972;BME280;64651;47.540;19.088;2023-04-26T21:42:25;100549.69;;;5.32;56.24
75972;BME280;64651;47.540;19.088;2023-04-26T21:47:27;100539.78;;;5.15;56.85
75972;BME280;64651;47.540;19.088;2023-04-26T21:52:30;100559.66;;;5.27;57.91
75972;BME280;64651;47.540;19.088;2023-04-26T21:57:32;100529.50;;;5.05;58.53
75972;BME280;64651;47.540;19.088;2023-04-26T22:02:34;100541.56;;;5.09;59.16
75972;BME280;64651;47.540;19.088;2023-04-26T22:07:37;100555.31;;;5.03;59.60
75972;BME280;64651;47.540;19.088;2023-04-26T22:12:39;100567.31;;;4.90;60.04
75972;BME280;64651;47.540;19.088;2023-04-26T22:17:42;100558.91;;;4.80;60.67
75972;BME280;64651;47.540;19.088;2023-04-26T22:22:44;100569.22;;;5.53;58.01
75972;BME280;64651;47.540;19.088;2023-04-26T22:27:47;100561.19;;;5.35;58.83
75972;BME280;64651;47.540;19.088;2023-04-26T22:32:49;100587.56;;;5.17;59.87
75972;BME280;64651;47.540;19.088;2023-04-26T22:37:54;100579.84;;;5.14;59.45
75972;BME280;64651;47.540;19.088;2023-04-26T22:42:57;100596.09;;;5.09;59.91
75972;BME280;64651;47.540;19.088;2023-04-26T22:47:59;100591.91;;;5.42;57.46
75972;BME280;64651;47.540;19.088;2023-04-26T22:53:01;100592.75;;;5.19;57.70
75972;BME280;64651;47.540;19.088;2023-04-26T22:58:03;100593.37;;;5.09;57.74
75972;BME280;64651;47.540;19.088;2023-04-26T23:03:06;100608.31;;;4.95;59.37
75972;BME280;64651;47.540;19.088;2023-04-26T23:08:08;100597.63;;;4.82;60.83
75972;BME280;64651;47.540;19.088;2023-04-26T23:13:10;100622.88;;;4.89;62.77
75972;BME280;64651;47.540;19.088;2023-04-26T23:18:12;100615.09;;;4.69;63.32
75972;BME280;64651;47.540;19.088;2023-04-26T23:23:15;100621.44;;;4.52;64.28
75972;BME280;64651;47.540;19.088;2023-04-26T23:28:17;100608.28;;;4.48;63.97
75972;BME280;64651;47.540;19.088;2023-04-26T23:33:19;100636.63;;;4.71;65.48
75972;BME280;64651;47.540;19.088;2023-04-26T23:38:21;100642.44;;;4.74;64.42
75972;BME280;64651;47.540;19.088;2023-04-26T23:43:24;100618.88;;;4.68;62.12
75972;BME280;64651;47.540;19.088;2023-04-26T23:48:26;100628.81;;;5.09;61.60
75972;BME280;64651;47.540;19.088;2023-04-26T23:53:28;100614.97;;;4.87;61.15
75972;BME280;64651;47.540;19.088;2023-04-26T23:58:30;100632.03;;;5.18;60.04
